Time;durP1;ratioP1;P1;durP2;ratioP2;P2;SDS_P1;SDS_P2;PMS_P1;PMS_P2;Temp;Humidity;BMP_temperature;BMP_pressure;BME280_temperature;BME280_humidity;BME280_pressure;Samples;Min_cycle;Max_cycle;Signal;HPM_P1;HPM_P2
2023/01/07 00:01:29;;;;;;;23.00;15.35;;;;;;;;;;4887656;29;20056;-91
2023/01/07 00:03:56;;;;;;;32.00;18.02;;;;;;;;;;4887690;29;20044;-93
2023/01/07 00:06:23;;;;;;;30.92;18.67;;;;;;;;;;4887914;29;20072;-93
2023/01/07 00:08:50;;;;;;;30.17;19.30;;;;;;;;;;4886506;29;20063;-91
2023/01/07 00:11:18;;;;;;;27.95;17.20;;;;;;;;;;4887594;29;20483;-92
2023/01/07 00:13:45;;;;;;;32.17;19.63;;;;;;;;;;4887633;29;20051;-93
2023/01/07 00:16:12;;;;;;;28.10;17.73;;;;;;;;;;4873034;29;20108;-92
2023/01/07 00:18:38;;;;;;;33.45;18.73;;;;;;;;;;4887341;29;20063;-94
2023/01/07 00:21:06;;;;;;;31.35;18.88;;;;;;;;;;4887575;29;20509;-91
2023/01/07 00:23:32;;;;;;;27.10;18.45;;;;;;;;;;4887310;29;20461;-92
2023/01/07 00:26:00;;;;;;;27.48;18.13;;;;;;;;;;4887476;29;20164;-91
2023/01/07 00:28:26;;;;;;;34.00;17.15;;;;;;;;;;4887002;29;20052;-91
2023/01/07 00:30:52;;;;;;;25.80;17.77;;;;;;;;;;4887437;29;20048;-93
2023/01/07 00:33:20;;;;;;;31.52;18.40;;;;;;;;;;4887470;29;20056;-94
2023/01/07 00:35:46;;;;;;;24.20;15.25;;;;;;;;;;4872471;29;20394;-92
2023/01/07 00:38:12;;;;;;;25.23;16.42;;;;;;;;;;4871936;29;20059;-93
2023/01/07 00:40:38;;;;;;;29.30;17.40;;;;;;;;;;4871674;29;20056;-91
2023/01/07 00:43:05;;;;;;;26.13;17.52;;;;;;;;;;4886925;29;20088;-92
2023/01/07 00:45:33;;;;;;;25.92;16.85;;;;;;;;;;4902621;29;20116;-91
2023/01/07 00:47:59;;;;;;;23.23;16.38;;;;;;;;;;4887111;29;20044;-91
2023/01/07 00:50:27;;;;;;;20.27;14.00;;;;;;;;;;4871578;29;20060;-91
2023/01/07 00:52:53;;;;;;;23.35;14.27;;;;;;;;;;4902991;29;20048;-91
2023/01/07 00:55:20;;;;;;;21.45;13.65;;;;;;;;;;4871923;29;20138;-91
2023/01/07 00:57:46;;;;;;;20.10;12.82;;;;;;;;;;4886772;29;20044;-91
2023/01/07 01:00:13;;;;;;;22.98;14.25;;;;;;;;;;4871628;29;20386;-91
2023/01/07 01:02:39;;;;;;;21.70;14.00;;;;;;;;;;4886761;29;20083;-91
2023/01/07 01:05:06;;;;;;;19.17;13.55;;;;;;;;;;4871205;29;20151;-91
2023/01/07 01:07:33;;;;;;;21.10;12.40;;;;;;;;;;4871354;29;20048;-90
2023/01/07 01:09:59;;;;;;;18.85;12.27;;;;;;;;;;4871317;29;20498;-92
2023/01/07 01:12:25;;;;;;;19.67;12.73;;;;;;;;;;4902627;29;20140;-91
2023/01/07 01:14:51;;;;;;;22.52;13.63;;;;;;;;;;4871289;29;20063;-91
2023/01/07 01:17:17;;;;;;;21.45;13.20;;;;;;;;;;4886704;29;20059;-93
2023/01/07 01:19:43;;;;;;;20.23;12.57;;;;;;;;;;4886368;29;20075;-91
2023/01/07 01:22:09;;;;;;;19.63;14.05;;;;;;;;;;4871412;29;20044;-92
2023/01/07 01:24:35;;;;;;;19.83;13.52;;;;;;;;;;4886906;29;20589;-92
2023/01/07 01:27:01;;;;;;;18.60;12.38;;;;;;;;;;4870847;29;20052;-92
2023/01/07 01:29:27;;;;;;;15.80;10.88;;;;;;;;;;4886786;29;20059;-92
2023/01/07 01:31:53;;;;;;;20.48;13.07;;;;;;;;;;4886105;29;20533;-92
2023/01/07 01:34:19;;;;;;;20.17;12.02;;;;;;;;;;4885684;29;20111;-92
2023/01/07 01:36:45;;;;;;;16.42;11.68;;;;;;;;;;4902037;29;20060;-94
2023/01/07 01:39:11;;;;;;;18.45;12.48;;;;;;;;;;4886364;29;20394;-94
2023/01/07 01:41:37;;;;;;;17.10;12.23;;;;;;;;;;4871190;29;20220;-92
2023/01/07 01:44:37;;;;;;;16.20;12.20;;;10.20;99.90;;;;;;4886089;29;20143;-93
2023/01/07 01:47:05;;;;;;;17.58;11.75;;;;;;;;;;4886073;29;20418;-94
2023/01/07 01:49:33;;;;;;;18.45;12.20;;;;;;;;;;4886268;29;20048;-93
2023/01/07 01:52:02;;;;;;;14.77;9.95;;;;;;;;;;4889648;23;20060;-94
2023/01/07 01:54:28;;;;;;;15.73;11.60;;;;;;;;;;4867939;29;20108;-93
2023/01/07 01:56:56;;;;;;;14.98;11.13;;;;;;;;;;4852238;29;20059;-95
2023/01/07 01:59:25;;;;;;;17.80;12.75;;;;;;;;;;4867503;29;20063;-96
2023/01/07 02:01:51;;;;;;;14.68;10.73;;;;;;;;;;4864868;29;20091;-95
2023/01/07 02:04:21;;;;;;;15.60;11.60;;;;;;;;;;4849136;29;20049;-94
2023/01/07 02:06:51;;;;;;;19.83;13.23;;;;;;;;;;4864869;29;20530;-95
2023/01/07 02:09:17;;;;;;;19.00;12.80;;;;;;;;;;4864799;29;20474;-95
2023/01/07 02:11:55;;;;;;;16.38;12.18;;;;;;;;;;4849446;29;20049;-96
2023/01/07 02:14:48;;;;;;;16.08;12.57;;;10.30;99.90;;;;;;4864104;29;20073;-95
2023/01/07 02:17:26;;;;;;;17.90;13.57;;;;;;;;;;4864768;29;20053;-95
2023/01/07 02:20:04;;;;;;;16.55;12.13;;;;;;;;;;4864629;29;20052;-95
2023/01/07 02:22:44;;;;;;;19.55;13.77;;;;;;;;;;4864252;29;20060;-95
2023/01/07 02:25:17;;;;;;;18.30;13.63;;;;;;;;;;4864168;29;20048;-95
2023/01/07 02:27:52;;;;;;;19.38;14.50;;;;;;;;;;4864610;29;20055;-94
2023/01/07 02:30:26;;;;;;;19.40;12.95;;;;;;;;;;4864516;29;20069;-95
2023/01/07 02:33:28;;;;;;;15.90;12.35;;;;;;;;;;4863775;29;20057;-95
2023/01/07 02:36:29;;;;;;;17.23;13.40;;;;;;;;;;4844217;29;20109;-95
2023/01/07 02:39:33;;;;;;;16.25;12.35;;;10.40;99.90;;;;;;4809443;29;20083;-96
2023/01/07 02:42:03;;;;;;;18.52;12.40;;;;;;;;;;4848345;29;20068;-95
2023/01/07 02:48:24;;;;;;;;;;;;;;;;;;;;;
2023/01/07 02:51:19;;;;;;;17.58;13.07;;;;;;;;;;4861956;29;20121;-95
2023/01/07 02:53:48;;;;;;;16.45;12.32;;;;;;;;;;4863280;29;20060;-93
2023/01/07 02:56:24;;;;;;;17.40;12.27;;;;;;;;;;4863979;29;20060;-94
2023/01/07 02:58:53;;;;;;;16.23;12.82;;;;;;;;;;4863675;29;20065;-92
2023/01/07 03:01:35;;;;;;;15.95;12.07;;;;;;;;;;4863233;29;20448;-91
2023/01/07 03:04:01;;;;;;;16.13;12.05;;;;;;;;;;4863093;29;20100;-93
2023/01/07 03:06:37;;;;;;;17.02;12.05;;;;;;;;;;4863271;29;20053;-91
2023/01/07 03:09:10;;;;;;;15.40;12.35;;;;;;;;;;4863309;29;20045;-91
2023/01/07 03:14:17;;;;;;;16.38;13.38;;;;;;;;;;4918272;23;20124;-91
2023/01/07 03:16:46;;;;;;;16.30;13.85;;;;;;;;;;4885384;29;20056;-90
2023/01/07 03:19:14;;;;;;;16.42;13.45;;;;;;;;;;4885582;29;21178;-91
2023/01/07 03:21:40;;;;;;;20.35;14.07;;;;;;;;;;4885299;29;20585;-90
2023/01/07 03:24:07;;;;;;;17.98;13.63;;;;;;;;;;4885065;29;20056;-89
2023/01/07 03:26:45;;;;;;;20.33;15.00;;;;;;;;;;4885203;29;20091;-91
2023/01/07 03:29:13;;;;;;;17.98;13.82;;;;;;;;;;4884872;29;20041;-89
2023/01/07 03:31:59;;;;;;;18.33;14.88;;;;;;;;;;4885051;29;20493;-95
2023/01/07 03:34:32;;;;;;;18.58;15.23;;;;;;;;;;4885909;29;20048;-94
2023/01/07 03:37:17;;;;;;;19.40;14.75;;;;;;;;;;4885948;29;20052;-95
2023/01/07 03:43:32;;;;;;;14.88;11.88;;;;;;;;;;4978090;23;20285;-95
2023/01/07 03:46:26;;;;;;;16.23;13.80;;;;;;;;;;4887470;29;20543;-96
2023/01/07 03:48:54;;;;;;;18.67;14.48;;;;;;;;;;4875319;29;20103;-95
2023/01/07 03:55:38;;;;;;;16.92;12.77;;;10.70;99.90;;;;;;4920721;29;20096;-94
2023/01/07 03:58:15;;;;;;;17.90;13.63;;;;;;;;;;4889467;29;20062;-95
2023/01/07 04:01:17;;;;;;;;;;;;;;;;;;;;;
2023/01/07 04:10:43;;;;;;;20.45;13.60;;;;;;;;;;4920512;29;20072;-94
2023/01/07 04:16:34;;;;;;;20.98;14.23;;;;;;;;;;4899757;29;20040;-94
2023/01/07 04:19:06;;;;;;;17.23;12.82;;;;;;;;;;4884086;29;20071;-95
2023/01/07 04:21:42;;;;;;;;;;;;;;;;;;;;;
2023/01/07 04:24:11;;;;;;;20.20;13.75;;;;;;;;;;4883972;29;20080;-94
2023/01/07 04:26:38;;;;;;;23.88;14.35;;;;;;;;;;4883947;29;20537;-93
2023/01/07 04:29:04;;;;;;;19.95;14.38;;;;;;;;;;4883683;29;20051;-94
2023/01/07 04:31:30;;;;;;;17.33;14.10;;;;;;;;;;4883985;29;20102;-93
2023/01/07 04:33:58;;;;;;;18.60;15.63;;;;;;;;;;4883721;29;20089;-95
2023/01/07 04:36:24;;;;;;;16.48;13.38;;;;;;;;;;4884372;29;20112;-94
2023/01/07 04:38:53;;;;;;;19.02;14.38;;;;;;;;;;4883756;29;20059;-94
2023/01/07 04:41:22;;;;;;;22.98;15.10;;;;;;;;;;4868167;29;20080;-94
2023/01/07 04:43:48;;;;;;;20.73;14.98;;;;;;;;;;4887201;29;20509;-94
2023/01/07 04:46:14;;;;;;;26.55;14.82;;;;;;;;;;4888072;29;20083;-94
2023/01/07 04:48:49;;;;;;;21.70;14.10;;;;;;;;;;4889219;29;20052;-95
2023/01/07 04:51:15;;;;;;;18.98;13.80;;;;;;;;;;4903163;29;20532;-95
2023/01/07 04:53:47;;;;;;;18.33;14.18;;;;;;;;;;4887581;29;20052;-94
2023/01/07 04:56:15;;;;;;;18.80;13.85;;;;;;;;;;4888313;29;20044;-95
2023/01/07 04:58:42;;;;;;;18.70;13.60;;;;;;;;;;4887038;29;20497;-95
2023/01/07 05:01:19;;;;;;;22.77;15.02;;;;;;;;;;4903538;29;20521;-94
2023/01/07 05:03:54;;;;;;;18.65;13.13;;;;;;;;;;4871327;29;20048;-94
2023/01/07 05:06:20;;;;;;;16.83;13.52;;;;;;;;;;4883338;29;20066;-91
2023/01/07 05:08:46;;;;;;;25.30;14.82;;;;;;;;;;4868671;29;20048;-90
2023/01/07 05:11:14;;;;;;;17.00;13.18;;;;;;;;;;4899357;29;20057;-92
2023/01/07 05:13:40;;;;;;;20.55;14.25;;;;;;;;;;4868306;29;20084;-91
2023/01/07 05:16:06;;;;;;;20.58;14.57;;;;;;;;;;4883315;29;20399;-90
2023/01/07 05:18:32;;;;;;;23.75;13.45;;;;;;;;;;4898762;29;20060;-91
2023/01/07 05:20:58;;;;;;;24.25;13.35;;;;;;;;;;4867937;29;20510;-91
2023/01/07 05:23:24;;;;;;;16.05;12.73;;;;;;;;;;4898811;29;20123;-92
2023/01/07 05:25:50;;;;;;;20.42;14.65;;;;;;;;;;4868229;29;20056;-92
2023/01/07 05:28:16;;;;;;;16.75;13.27;;;;;;;;;;4883105;29;20060;-92
2023/01/07 05:30:42;;;;;;;19.50;14.52;;;;;;;;;;4883312;29;20055;-90
2023/01/07 05:33:08;;;;;;;18.75;14.05;;;;;;;;;;4867538;29;20048;-92
2023/01/07 05:35:35;;;;;;;21.55;13.77;;;;;;;;;;4867974;29;20056;-92
2023/01/07 05:38:01;;;;;;;16.00;12.23;;;;;;;;;;4882983;29;20052;-91
2023/01/07 05:40:27;;;;;;;21.00;13.25;;;;;;;;;;4882838;29;20064;-92
2023/01/07 05:42:53;;;;;;;18.95;12.73;;;;;;;;;;4883176;29;20049;-92
2023/01/07 05:45:20;;;;;;;16.50;12.90;;;;;;;;;;4883227;29;20056;-93
2023/01/07 05:47:46;;;;;;;17.75;13.02;;;;;;;;;;4883286;29;20060;-93
2023/01/07 05:50:12;;;;;;;16.98;12.82;;;;;;;;;;4868257;29;20450;-93
2023/01/07 05:52:38;;;;;;;18.25;12.45;;;;;;;;;;4883158;29;20084;-92
2023/01/07 05:55:05;;;;;;;16.58;11.43;;;;;;;;;;4883032;29;20053;-91
2023/01/07 05:57:31;;;;;;;17.20;10.48;;;;;;;;;;4883204;29;20063;-92
2023/01/07 05:59:57;;;;;;;20.73;11.32;;;;;;;;;;4883404;29;20143;-92
2023/01/07 06:02:23;;;;;;;18.73;11.15;;;;;;;;;;4882907;29;20064;-93
2023/01/07 06:04:49;;;;;;;16.83;11.77;;;;;;;;;;4867510;29;20160;-94
2023/01/07 06:07:16;;;;;;;16.10;10.80;;;;;;;;;;4866384;29;20063;-92
2023/01/07 06:09:42;;;;;;;14.60;10.98;;;;;;;;;;4866926;29;20060;-90
2023/01/07 06:12:08;;;;;;;15.55;11.45;;;;;;;;;;4867253;29;20049;-91
2023/01/07 06:14:34;;;;;;;13.48;9.80;;;;;;;;;;4898151;29;20088;-92
2023/01/07 06:17:00;;;;;;;17.48;11.68;;;;;;;;;;4882702;29;20391;-91
2023/01/07 06:19:26;;;;;;;12.90;8.77;;;;;;;;;;4882461;29;20541;-92
2023/01/07 06:21:52;;;;;;;14.13;9.80;;;;;;;;;;4882447;29;20455;-92
2023/01/07 06:24:18;;;;;;;12.43;9.57;;;;;;;;;;4866803;29;20536;-92
2023/01/07 06:26:44;;;;;;;14.70;10.70;;;;;;;;;;4882850;29;20070;-91
2023/01/07 06:29:10;;;;;;;13.60;10.57;;;;;;;;;;4882049;29;20116;-91
2023/01/07 06:31:36;;;;;;;12.70;9.27;;;;;;;;;;4866808;29;20196;-90
2023/01/07 06:34:02;;;;;;;11.68;10.27;;;;;;;;;;4897742;29;20071;-92
2023/01/07 06:36:28;;;;;;;13.07;10.55;;;;;;;;;;4882387;29;20116;-92
2023/01/07 06:38:54;;;;;;;19.17;11.38;;;;;;;;;;4882575;29;20052;-91
2023/01/07 06:41:20;;;;;;;12.05;9.40;;;;;;;;;;4866716;29;20102;-91
2023/01/07 06:43:46;;;;;;;10.45;7.93;;;;;;;;;;4866586;29;20059;-92
2023/01/07 06:46:12;;;;;;;13.27;9.60;;;;;;;;;;4882112;29;20053;-92
2023/01/07 06:48:38;;;;;;;15.27;9.02;;;;;;;;;;4881939;29;20052;-91
2023/01/07 06:51:04;;;;;;;12.02;9.48;;;;;;;;;;4866419;29;20056;-92
2023/01/07 06:53:31;;;;;;;13.00;8.93;;;;;;;;;;4881839;29;20478;-91
2023/01/07 06:55:57;;;;;;;12.60;8.88;;;;;;;;;;4866571;29;20049;-92
2023/01/07 06:58:23;;;;;;;14.45;10.15;;;;;;;;;;4882090;29;20052;-90
2023/01/07 07:00:49;;;;;;;12.55;8.75;;;;;;;;;;4881595;29;20059;-91
2023/01/07 07:03:15;;;;;;;12.25;9.10;;;;;;;;;;4866504;29;20045;-92
2023/01/07 07:05:41;;;;;;;11.57;8.18;;;;;;;;;;4881686;29;20144;-92
2023/01/07 07:08:07;;;;;;;11.70;8.50;;;;;;;;;;4881931;29;20532;-90
2023/01/07 07:10:34;;;;;;;14.70;8.05;;;;;;;;;;4866327;29;20573;-91
2023/01/07 07:13:00;;;;;;;11.25;8.57;;;;;;;;;;4866784;29;20062;-91
2023/01/07 07:15:26;;;;;;;11.43;9.02;;;;;;;;;;4867478;29;20053;-92
2023/01/07 07:17:52;;;;;;;13.18;9.20;;;;;;;;;;4868184;29;20064;-91
2023/01/07 07:20:18;;;;;;;11.30;7.95;;;;;;;;;;4885699;29;20537;-91
2023/01/07 07:22:47;;;;;;;16.05;8.95;;;;;;;;;;4870584;29;20049;-92
2023/01/07 07:25:14;;;;;;;14.93;8.75;;;;;;;;;;4885792;29;20127;-91
2023/01/07 07:27:40;;;;;;;13.00;9.20;;;;;;;;;;4869999;29;20053;-92
2023/01/07 07:30:07;;;;;;;13.52;8.82;;;;;;;;;;4870198;29;20482;-93
2023/01/07 07:32:33;;;;;;;12.05;8.70;;;;;;;;;;4886028;29;20481;-92
2023/01/07 07:34:59;;;;;;;13.20;8.82;;;;;;;;;;4886319;29;20192;-92
2023/01/07 07:37:25;;;;;;;9.15;8.25;;;;;;;;;;4885436;29;20057;-92
2023/01/07 07:39:51;;;;;;;15.05;7.97;;;;;;;;;;4869942;29;20057;-92
2023/01/07 07:42:17;;;;;;;10.98;8.90;;;;;;;;;;4870798;29;20474;-93
2023/01/07 07:44:43;;;;;;;9.40;7.35;;;;;;;;;;4885226;29;20440;-93
2023/01/07 07:47:10;;;;;;;9.40;7.88;;;;;;;;;;4870049;29;20052;-92
2023/01/07 07:49:36;;;;;;;12.65;8.25;;;;;;;;;;4900391;29;20048;-92
2023/01/07 07:52:02;;;;;;;18.23;7.85;;;;;;;;;;4885110;29;20053;-92
2023/01/07 07:54:28;;;;;;;10.60;8.88;;;;;;;;;;4884923;29;20065;-93
2023/01/07 07:56:57;;;;;;;10.93;8.02;;;;;;;;;;4885116;29;20053;-93
2023/01/07 07:59:23;;;;;;;11.32;8.18;;;;;;;;;;4870401;29;20071;-93
2023/01/07 08:01:49;;;;;;;9.05;8.05;;;;;;;;;;4868958;29;20092;-90
2023/01/07 08:04:15;;;;;;;9.63;8.35;;;;;;;;;;4868592;29;20090;-90
2023/01/07 08:06:41;;;;;;;12.25;8.27;;;;;;;;;;4868628;29;20462;-89
2023/01/07 08:09:08;;;;;;;10.55;7.75;;;;;;;;;;4884441;29;20402;-90
2023/01/07 08:11:34;;;;;;;9.23;7.25;;;;;;;;;;4883819;29;20053;-90
2023/01/07 08:14:00;;;;;;;8.60;7.47;;;;;;;;;;4868615;29;20064;-90
2023/01/07 08:16:26;;;;;;;8.57;7.45;;;;;;;;;;4884279;29;20135;-90
2023/01/07 08:18:52;;;;;;;13.68;7.18;;;;;;;;;;4884611;29;20075;-90
2023/01/07 08:21:18;;;;;;;9.88;6.88;;;;;;;;;;4883783;29;20056;-90
2023/01/07 08:23:44;;;;;;;10.60;7.15;;;;;;;;;;4868252;29;20131;-90
2023/01/07 08:26:10;;;;;;;8.40;6.45;;;;;;;;;;4884068;29;20088;-90
2023/01/07 08:28:37;;;;;;;7.90;6.45;;;;;;;;;;4882974;29;20134;-90
2023/01/07 08:31:04;;;;;;;12.80;6.78;;;;;;;;;;4883533;29;20052;-90
2023/01/07 08:33:32;;;;;;;7.95;6.22;;;;;;;;;;4883656;29;20135;-89
2023/01/07 08:35:59;;;;;;;7.63;6.28;;;;;;;;;;4883514;29;20484;-91
2023/01/07 08:38:27;;;;;;;6.43;5.78;;;;;;;;;;4868411;29;20425;-91
2023/01/07 08:40:53;;;;;;;9.82;5.53;;;;;;;;;;4868228;29;20045;-90
2023/01/07 08:43:19;;;;;;;8.63;6.03;;;;;;;;;;4883922;29;20068;-90
2023/01/07 08:45:48;;;;;;;6.13;5.45;;;;;;;;;;4883505;29;20112;-90
2023/01/07 08:48:15;;;;;;;10.73;5.85;;;;;;;;;;4884634;29;20048;-90
2023/01/07 08:50:41;;;;;;;7.10;5.38;;;;;;;;;;4868636;29;20091;-92
2023/01/07 08:53:07;;;;;;;6.85;5.18;;;;;;;;;;4868580;29;20057;-92
2023/01/07 08:55:33;;;;;;;9.30;5.90;;;;;;;;;;4883944;29;20492;-92
2023/01/07 08:57:59;;;;;;;7.57;4.38;;;;;;;;;;4868724;29;20052;-92
2023/01/07 09:00:25;;;;;;;7.63;4.63;;;;;;;;;;4884279;29;20406;-92
2023/01/07 09:02:51;;;;;;;9.45;5.00;;;;;;;;;;4868397;29;20183;-93
2023/01/07 09:05:17;;;;;;;7.55;5.60;;;;;;;;;;4885341;29;20115;-92
2023/01/07 09:07:43;;;;;;;6.93;4.93;;;;;;;;;;4887235;29;20135;-92
2023/01/07 09:10:10;;;;;;;6.93;5.40;;;;;;;;;;4871438;29;20048;-93
2023/01/07 09:12:36;;;;;;;8.45;4.95;;;;;;;;;;4886799;29;20146;-93
2023/01/07 09:15:02;;;;;;;6.15;4.85;;;;;;;;;;4886534;29;20146;-92
2023/01/07 09:17:29;;;;;;;4.78;4.20;;;;;;;;;;4886380;29;20119;-90
2023/01/07 09:19:55;;;;;;;6.47;4.85;;;;;;;;;;4870401;29;20091;-90
2023/01/07 09:22:21;;;;;;;4.90;4.18;;;;;;;;;;4886521;29;20060;-89
2023/01/07 09:24:47;;;;;;;5.63;4.72;;;;;;;;;;4870685;29;20063;-90
2023/01/07 09:27:15;;;;;;;5.03;4.53;;;;;;;;;;4870712;29;20104;-91
2023/01/07 09:29:41;;;;;;;4.72;4.18;;;;;;;;;;4885920;29;20532;-90
2023/01/07 09:32:07;;;;;;;5.57;4.53;;;;;;;;;;4886131;29;20397;-90
2023/01/07 09:34:33;;;;;;;5.40;4.10;;;;;;;;;;4885764;29;20091;-90
2023/01/07 09:36:59;;;;;;;6.07;4.20;;;;;;;;;;4886053;29;20154;-90
2023/01/07 09:39:25;;;;;;;12.85;5.13;;;;;;;;;;4870535;29;20098;-90
2023/01/07 09:42:01;;;;;;;6.60;3.90;;;;;;;;;;4885426;29;20055;-90
2023/01/07 09:44:30;;;;;;;5.63;4.05;;;;;;;;;;4885422;29;20063;-90
2023/01/07 09:46:57;;;;;;;6.88;4.65;;;;;;;;;;4885545;29;20513;-90
2023/01/07 09:49:25;;;;;;;5.93;4.32;;;;;;;;;;4885753;29;20059;-89
2023/01/07 09:51:54;;;;;;;6.63;4.18;;;;;;;;;;4885215;29;20048;-92
2023/01/07 09:54:32;;;;;;;4.30;3.45;;;;;;;;;;4887899;29;20086;-92
2023/01/07 09:57:33;;;;;;;7.15;3.70;;;;;;;;;;4885962;29;20056;-91
2023/01/07 10:00:14;;;;;;;8.18;4.15;;;;;;;;;;4874717;29;20056;-90
2023/01/07 10:02:54;;;;;;;12.70;4.40;;;;;;;;;;4910289;23;20401;-91
2023/01/07 10:05:45;;;;;;;4.80;3.58;;;10.00;99.90;;;;;;4911311;23;20052;-90
2023/01/07 10:08:28;;;;;;;4.95;3.42;;;;;;;;;;4883151;23;20164;-90
2023/01/07 10:15:10;;;;;;;4.63;3.72;;;;;;;;;;4919277;29;20104;-91
2023/01/07 10:18:33;;;;;;;4.00;3.17;;;;;;;;;;4886647;29;20114;-93
2023/01/07 10:21:18;;;;;;;4.32;3.53;;;;;;;;;;4830318;29;20049;-90
2023/01/07 10:26:55;;;;;;;;;;;;;;;;;;;;;
2023/01/07 10:33:27;;;;;;;6.30;3.25;;;;;;;;;;4919652;29;20197;-94
2023/01/07 10:47:13;;;;;;;3.88;2.58;;;;;;;;;;4842940;29;20075;-91
2023/01/07 10:53:31;;;;;;;4.38;3.00;;;;;;;;;;4829013;29;20082;-91
2023/01/07 11:03:48;;;;;;;3.50;2.88;;;;;;;;;;4924657;29;20090;-91
2023/01/07 11:18:18;;;;;;;5.85;3.40;;;;;;;;;;4923047;29;20064;-93
2023/01/07 11:20:51;;;;;;;3.10;2.88;;;;;;;;;;4907693;29;20106;-92
2023/01/07 11:27:33;;;;;;;6.88;2.85;;;;;;;;;;4924151;29;20087;-92
2023/01/07 11:30:23;;;;;;;3.33;2.83;;;;;;;;;;4906586;29;20087;-93
2023/01/07 11:36:54;;;;;;;4.25;3.08;;;;;;;;;;4881706;29;20087;-92
2023/01/07 11:39:35;;;;;;;2.85;2.30;;;;;;;;;;4905597;29;20060;-91
2023/01/07 11:45:53;;;;;;;2.20;2.03;;;10.80;99.90;;;;;;4906670;29;20518;-91
2023/01/07 11:48:44;;;;;;;3.17;2.10;;;;;;;;;;4893036;29;20063;-91
2023/01/07 11:51:36;;;;;;;2.30;2.00;;;;;;;;;;4906898;29;20049;-95
2023/01/07 11:57:41;;;;;;;3.72;2.00;;;;;;;;;;4842948;29;20054;-92
2023/01/07 12:00:32;;;;;;;2.63;1.80;;;;;;;;;;4889636;29;20122;-91
2023/01/07 12:03:13;;;;;;;6.70;2.08;;;;;;;;;;4885521;29;20040;-91
2023/01/07 12:05:46;;;;;;;2.70;2.00;;;;;;;;;;4886112;29;20052;-91
2023/01/07 12:08:22;;;;;;;5.15;2.80;;;;;;;;;;4886526;29;20064;-92
2023/01/07 12:10:58;;;;;;;3.72;2.58;;;;;;;;;;4886830;29;20072;-91
2023/01/07 12:13:39;;;;;;;3.28;2.95;;;;;;;;;;4885951;29;20060;-91
2023/01/07 12:16:06;;;;;;;3.10;2.17;;;;;;;;;;4885677;29;20482;-92
2023/01/07 12:23:09;;;;;;;2.58;2.15;;;;;;;;;;4903531;29;20043;-91
2023/01/07 12:25:55;;;;;;;3.05;1.95;;;;;;;;;;4885684;29;20052;-92
2023/01/07 12:28:47;;;;;;;3.22;1.95;;;;;;;;;;4886442;29;20049;-93
2023/01/07 12:31:21;;;;;;;2.08;1.63;;;;;;;;;;4869563;29;20056;-95
2023/01/07 12:34:17;;;;;;;2.25;2.00;;;;;;;;;;4886971;29;20064;-92
2023/01/07 12:37:09;;;;;;;1.67;1.58;;;;;;;;;;4878441;29;20064;-91
2023/01/07 12:39:44;;;;;;;3.10;1.65;;;;;;;;;;4878737;29;20088;-94
2023/01/07 12:42:28;;;;;;;2.97;1.98;;;;;;;;;;4857504;29;20529;-95
2023/01/07 12:45:03;;;;;;;1.45;1.35;;;;;;;;;;4886843;29;20080;-93
2023/01/07 12:47:33;;;;;;;2.38;2.17;;;;;;;;;;4902224;29;20131;-92
2023/01/07 12:50:26;;;;;;;1.42;1.33;;;;;;;;;;4886669;29;20062;-93
2023/01/07 12:52:56;;;;;;;2.90;1.77;;;;;;;;;;4884710;29;20048;-90
2023/01/07 12:55:45;;;;;;;3.83;2.10;;;;;;;;;;4883998;29;20409;-91
2023/01/07 12:58:17;;;;;;;1.73;1.63;;;;;;;;;;4883804;29;20092;-90
2023/01/07 13:00:58;;;;;;;2.65;2.25;;;;;;;;;;4884606;29;20116;-91
2023/01/07 13:03:31;;;;;;;2.35;2.00;;;;;;;;;;4857482;29;20056;-91
2023/01/07 13:06:12;;;;;;;1.70;1.60;;;;;;;;;;4871220;29;20521;-90
2023/01/07 13:09:02;;;;;;;2.58;2.08;;;;;;;;;;4887529;29;20082;-90
2023/01/07 13:14:43;;;;;;;3.85;2.25;;;;;;;;;;4898876;29;20421;-91
2023/01/07 13:17:22;;;;;;;1.95;1.75;;;;;;;;;;4882529;29;20139;-91
2023/01/07 13:19:55;;;;;;;2.47;2.28;;;;;;;;;;4882961;29;20052;-90
2023/01/07 13:22:24;;;;;;;1.88;1.77;;;;;;;;;;4882889;29;20041;-92
2023/01/07 13:25:03;;;;;;;2.45;2.25;;;;;;;;;;4883031;29;20517;-91
2023/01/07 13:27:45;;;;;;;2.33;1.88;;;;;;;;;;4882824;29;20166;-91
2023/01/07 13:30:23;;;;;;;2.67;1.95;;;;;;;;;;4883081;29;20057;-90
2023/01/07 13:33:05;;;;;;;2.40;1.90;;;;;;;;;;4882488;29;20049;-91
2023/01/07 13:35:46;;;;;;;2.17;1.98;;;;;;;;;;4882620;29;20498;-91
2023/01/07 13:38:12;;;;;;;4.28;1.67;;;;;;;;;;4882909;29;20143;-91
2023/01/07 13:40:48;;;;;;;2.42;1.83;;;;;;;;;;4883737;29;20505;-90
2023/01/07 13:43:35;;;;;;;1.83;1.73;;;10.60;99.90;;;;;;4882496;29;20063;-90
2023/01/07 13:46:06;;;;;;;3.33;1.67;;;;;;;;;;4882598;29;20049;-90
2023/01/07 13:48:33;;;;;;;1.88;1.60;;;;;;;;;;4883035;29;20060;-93
2023/01/07 13:51:12;;;;;;;2.80;2.08;;;;;;;;;;4882171;29;20135;-90
2023/01/07 13:53:40;;;;;;;1.77;1.67;;;;;;;;;;4882235;29;20056;-92
2023/01/07 13:56:18;;;;;;;2.05;1.65;;;;;;;;;;4882227;29;20088;-91
2023/01/07 13:59:04;;;;;;;1.88;1.65;;;;;;;;;;4882438;29;20056;-90
2023/01/07 14:01:50;;;;;;;1.73;1.58;;;;;;;;;;4882899;29;20586;-90
2023/01/07 14:04:22;;;;;;;1.60;1.50;;;;;;;;;;4867070;29;20108;-91
2023/01/07 14:06:54;;;;;;;1.75;1.65;;;;;;;;;;4882083;29;20195;-90
2023/01/07 14:09:31;;;;;;;1.85;1.75;;;;;;;;;;4881973;29;20118;-90
2023/01/07 14:12:15;;;;;;;2.33;2.13;;;;;;;;;;4882258;29;20060;-92
2023/01/07 14:15:00;;;;;;;1.52;1.42;;;;;;;;;;4883924;29;20136;-91
2023/01/07 14:17:31;;;;;;;3.50;1.70;;;;;;;;;;4883218;29;20194;-92
2023/01/07 14:22:59;;;;;;;2.65;1.73;;;;;;;;;;4876983;29;20088;-91
2023/01/07 14:25:31;;;;;;;2.22;1.52;;;;;;;;;;4883288;29;20052;-94
2023/01/07 14:28:31;;;;;;;1.63;1.52;;;;;;;;;;4883017;29;20582;-93
2023/01/07 14:30:58;;;;;;;3.13;2.05;;;;;;;;;;4883690;29;20056;-92
2023/01/07 14:33:30;;;;;;;1.55;1.45;;;;;;;;;;4882648;29;20510;-91
2023/01/07 14:36:01;;;;;;;2.67;1.92;;;;;;;;;;4883403;29;20052;-94
2023/01/07 14:38:40;;;;;;;2.50;2.00;;;;;;;;;;4883895;29;20401;-94
2023/01/07 14:41:20;;;;;;;2.47;1.60;;;;;;;;;;4883619;29;20490;-93
2023/01/07 14:43:55;;;;;;;2.42;1.92;;;;;;;;;;4899118;29;20406;-91
2023/01/07 14:46:27;;;;;;;1.60;1.50;;;;;;;;;;4883734;29;20099;-92
2023/01/07 14:49:13;;;;;;;;;;;;;;;;;;;;;
2023/01/07 14:52:03;;;;;;;1.70;1.60;;;;;;;;;;4898638;29;20057;-91
2023/01/07 14:54:47;;;;;;;6.85;1.80;;;;;;;;;;4882715;29;20045;-93
2023/01/07 14:57:35;;;;;;;2.92;1.95;;;;;;;;;;4882926;29;20075;-92
2023/01/07 15:00:20;;;;;;;2.30;2.05;;;;;;;;;;4882779;29;20140;-93
2023/01/07 15:02:53;;;;;;;2.08;1.88;;;;;;;;;;4883212;29;20422;-93
2023/01/07 15:17:58;;;;;;;2.78;2.33;;;;;;;;;;4898562;29;20116;-92
2023/01/07 15:20:30;;;;;;;4.47;2.00;;;;;;;;;;4882732;29;20092;-93
2023/01/07 15:23:29;;;;;;;1.95;1.80;;;;;;;;;;4883044;29;20049;-94
2023/01/07 15:25:59;;;;;;;2.50;2.30;;;;;;;;;;4883487;29;20490;-92
2023/01/07 15:28:46;;;;;;;2.75;2.28;;;;;;;;;;4883381;29;20064;-92
2023/01/07 15:38:03;;;;;;;5.72;2.40;;;;;;;;;;4879698;29;20430;-92
2023/01/07 15:40:39;;;;;;;2.03;1.92;;;;;;;;;;4887137;29;20051;-93
2023/01/07 15:43:15;;;;;;;3.10;2.58;;;;;;;;;;4886383;29;20111;-94
2023/01/07 15:45:44;;;;;;;2.53;2.33;;;;;;;;;;4886307;29;20146;-93
2023/01/07 15:48:21;;;;;;;2.42;2.20;;;;;;;;;;4887040;29;20048;-93
2023/01/07 15:50:47;;;;;;;3.53;2.38;;;;;;;;;;4901874;29;20063;-93
2023/01/07 15:53:42;;;;;;;4.30;2.25;;;;;;;;;;4886619;29;20056;-94
2023/01/07 15:56:17;;;;;;;2.53;2.20;;;;;;;;;;4886438;29;20059;-95
2023/01/07 15:58:47;;;;;;;2.28;2.08;;;;;;;;;;4886403;29;20059;-93
2023/01/07 16:01:26;;;;;;;2.30;2.10;;;;;;;;;;4887409;29;20045;-94
2023/01/07 16:04:02;;;;;;;3.53;2.35;;;;;;;;;;4886200;29;20056;-92
2023/01/07 16:06:38;;;;;;;2.60;2.30;;;;;;;;;;4886506;29;20084;-92
2023/01/07 16:09:17;;;;;;;3.05;2.00;;;;;;;;;;4886223;29;20132;-94
2023/01/07 16:11:44;;;;;;;5.70;2.60;;;;;;;;;;4885261;29;20040;-93
2023/01/07 16:14:36;;;;;;;2.33;2.08;;;;;;;;;;4886809;29;20049;-93
2023/01/07 16:17:13;;;;;;;5.30;2.10;;;;;;;;;;4885953;29;20060;-94
2023/01/07 16:19:42;;;;;;;2.47;2.28;;;;;;;;;;4885498;29;20140;-93
2023/01/07 16:22:11;;;;;;;3.42;2.60;;;;;;;;;;4886424;29;20128;-92
2023/01/07 16:24:37;;;;;;;3.05;2.63;;;;;;;;;;4888620;29;20053;-91
2023/01/07 16:27:06;;;;;;;3.17;2.60;;;;;;;;;;4855863;29;20052;-93
2023/01/07 16:29:36;;;;;;;5.60;2.67;;;;;;;;;;4885113;29;20063;-91
2023/01/07 16:32:05;;;;;;;5.32;2.75;;;;;;;;;;4885116;29;20052;-92
2023/01/07 16:34:31;;;;;;;3.85;2.70;;;;;;;;;;4884383;29;20053;-90
2023/01/07 16:36:58;;;;;;;2.75;2.33;;;;;;;;;;4883932;29;20088;-91
2023/01/07 16:39:37;;;;;;;4.05;3.13;;;;;;;;;;4884100;29;20387;-91
2023/01/07 16:42:18;;;;;;;3.47;3.15;;;;;;;;;;4883599;29;20052;-90
2023/01/07 16:44:44;;;;;;;6.13;3.53;;;;;;;;;;4883856;29;20509;-90
2023/01/07 16:47:16;;;;;;;3.60;3.08;;;;;;;;;;4883831;29;20056;-90
2023/01/07 16:49:43;;;;;;;5.47;3.40;;;;;;;;;;4883560;29;20096;-94
2023/01/07 16:52:13;;;;;;;3.50;2.88;;;;;;;;;;4868372;29;20060;-93
2023/01/07 16:54:41;;;;;;;3.40;3.10;;;;;;;;;;4883639;29;20585;-93
2023/01/07 16:57:10;;;;;;;3.58;2.85;;;;;;;;;;4884013;29;20117;-93